sensor_id;sensor_type;location;lat;lon;timestamp;pressure;altitude;pressure_sealevel;temperature;humidity
19777;BME280;10047;42.490;26.012;2023-02-11T00:01:05;102158.94;;;-2.61;100.00
19777;BME280;10047;42.490;26.012;2023-02-11T00:03:31;102016.09;;;-3.33;100.00
19777;BME280;10047;42.490;26.012;2023-02-11T00:05:58;102141.97;;;-3.21;100.00
19777;BME280;10047;42.490;26.012;2023-02-11T00:08:26;102072.44;;;-3.06;100.00
19777;BME280;10047;42.490;26.012;2023-02-11T00:10:53;102130.78;;;-2.60;100.00
19777;BME280;10047;42.490;26.012;2023-02-11T00:13:19;102070.63;;;-3.09;100.00
19777;BME280;10047;42.490;26.012;2023-02-11T00:15:44;102137.69;;;-2.97;100.00
19777;BME280;10047;42.490;26.012;2023-02-11T00:18:10;102074.75;;;-3.22;100.00
19777;BME280;10047;42.490;26.012;2023-02-11T00:20:38;102126.22;;;-2.68;100.00
19777;BME280;10047;42.490;26.012;2023-02-11T00:23:03;102122.44;;;-2.89;100.00
19777;BME280;10047;42.490;26.012;2023-02-11T00:25:28;102099.94;;;-2.90;100.00
19777;BME280;10047;42.490;26.012;2023-02-11T00:27:54;102108.03;;;-3.07;100.00
19777;BME280;10047;42.490;26.012;2023-02-11T00:30:19;102084.69;;;-3.09;100.00
19777;BME280;10047;42.490;26.012;2023-02-11T00:32:45;102011.63;;;-3.39;100.00
19777;BME280;10047;42.490;26.012;2023-02-11T00:35:11;102096.56;;;-3.05;100.00
19777;BME280;10047;42.490;26.012;2023-02-11T00:37:36;102000.09;;;-3.65;100.00
19777;BME280;10047;42.490;26.012;2023-02-11T00:40:05;102088.63;;;-3.26;100.00
19777;BME280;10047;42.490;26.012;2023-02-11T00:42:31;102076.03;;;-3.29;100.00
19777;BME280;10047;42.490;26.012;2023-02-11T00:44:56;101994.59;;;-3.46;100.00
19777;BME280;10047;42.490;26.012;2023-02-11T00:47:22;102069.56;;;-2.72;100.00
19777;BME280;10047;42.490;26.012;2023-02-11T00:49:47;102073.44;;;-3.17;100.00
19777;BME280;10047;42.490;26.012;2023-02-11T00:52:13;102006.19;;;-3.60;100.00
19777;BME280;10047;42.490;26.012;2023-02-11T00:54:39;102059.19;;;-3.20;100.00
19777;BME280;10047;42.490;26.012;2023-02-11T00:57:04;102020.53;;;-3.82;100.00
19777;BME280;10047;42.490;26.012;2023-02-11T00:59:29;102069.38;;;-3.69;100.00
19777;BME280;10047;42.490;26.012;2023-02-11T01:01:55;102054.44;;;-3.95;100.00
19777;BME280;10047;42.490;26.012;2023-02-11T01:04:20;101959.59;;;-4.03;100.00
19777;BME280;10047;42.490;26.012;2023-02-11T01:06:46;101891.34;;;-4.62;100.00
19777;BME280;10047;42.490;26.012;2023-02-11T01:09:11;102044.88;;;-3.76;100.00
19777;BME280;10047;42.490;26.012;2023-02-11T01:11:37;102035.72;;;-3.51;100.00
19777;BME280;10047;42.490;26.012;2023-02-11T01:14:02;101938.78;;;-3.79;100.00
19777;BME280;10047;42.490;26.012;2023-02-11T01:16:28;101949.56;;;-4.30;100.00
19777;BME280;10047;42.490;26.012;2023-02-11T01:18:53;101940.53;;;-4.30;100.00
19777;BME280;10047;42.490;26.012;2023-02-11T01:21:19;102023.78;;;-3.57;100.00
19777;BME280;10047;42.490;26.012;2023-02-11T01:23:44;102002.34;;;-3.41;100.00
19777;BME280;10047;42.490;26.012;2023-02-11T01:26:10;101999.97;;;-3.53;100.00
19777;BME280;10047;42.490;26.012;2023-02-11T01:28:35;101914.91;;;-4.16;100.00
19777;BME280;10047;42.490;26.012;2023-02-11T01:31:01;101914.53;;;-4.35;100.00
19777;BME280;10047;42.490;26.012;2023-02-11T01:33:28;101836.59;;;-4.52;100.00
19777;BME280;10047;42.490;26.012;2023-02-11T01:35:54;101981.88;;;-4.04;100.00
19777;BME280;10047;42.490;26.012;2023-02-11T01:38:22;101967.94;;;-4.02;100.00
19777;BME280;10047;42.490;26.012;2023-02-11T01:40:56;101945.56;;;-3.89;100.00
19777;BME280;10047;42.490;26.012;2023-02-11T01:43:23;101951.38;;;-3.89;100.00
19777;BME280;10047;42.490;26.012;2023-02-11T01:48:41;101934.13;;;-4.00;100.00
19777;BME280;10047;42.490;26.012;2023-02-11T01:51:21;101934.94;;;-3.74;100.00
19777;BME280;10047;42.490;26.012;2023-02-11T01:53:48;101914.00;;;-3.77;100.00
19777;BME280;10047;42.490;26.012;2023-02-11T01:56:34;101891.28;;;-4.24;100.00
19777;BME280;10047;42.490;26.012;2023-02-11T01:59:25;101810.53;;;-4.45;100.00
19777;BME280;10047;42.490;26.012;2023-02-11T02:01:56;101881.59;;;-3.66;100.00
19777;BME280;10047;42.490;26.012;2023-02-11T02:04:24;101864.56;;;-3.87;100.00
19777;BME280;10047;42.490;26.012;2023-02-11T02:07:00;101852.19;;;-3.73;100.00
19777;BME280;10047;42.490;26.012;2023-02-11T02:09:29;101856.69;;;-3.80;100.00
19777;BME280;10047;42.490;26.012;2023-02-11T02:11:58;101845.84;;;-3.55;100.00
19777;BME280;10047;42.490;26.012;2023-02-11T02:14:23;101852.06;;;-3.89;100.00
19777;BME280;10047;42.490;26.012;2023-02-11T02:16:50;101847.75;;;-3.64;100.00
19777;BME280;10047;42.490;26.012;2023-02-11T02:38:47;101825.44;;;-4.04;100.00
19777;BME280;10047;42.490;26.012;2023-02-11T02:41:18;101739.00;;;-4.24;100.00
19777;BME280;10047;42.490;26.012;2023-02-11T02:43:48;101744.19;;;-4.34;100.00
19777;BME280;10047;42.490;26.012;2023-02-11T02:46:27;101835.38;;;-3.34;100.00
19777;BME280;10047;42.490;26.012;2023-02-11T02:48:54;101837.22;;;-4.15;100.00
19777;BME280;10047;42.490;26.012;2023-02-11T03:02:58;101873.03;;;-5.14;100.00
19777;BME280;10047;42.490;26.012;2023-02-11T03:08:14;101873.59;;;-5.18;100.00
19777;BME280;10047;42.490;26.012;2023-02-11T03:10:44;101881.63;;;-5.09;100.00
19777;BME280;10047;42.490;26.012;2023-02-11T03:13:11;101901.34;;;-5.36;100.00
19777;BME280;10047;42.490;26.012;2023-02-11T03:15:42;101921.50;;;-5.67;100.00
19777;BME280;10047;42.490;26.012;2023-02-11T03:18:11;102002.38;;;-5.32;100.00
19777;BME280;10047;42.490;26.012;2023-02-11T03:20:39;102006.19;;;-5.60;100.00
19777;BME280;10047;42.490;26.012;2023-02-11T03:23:27;101885.56;;;-6.79;100.00
19777;BME280;10047;42.490;26.012;2023-02-11T03:26:10;102059.59;;;-5.40;100.00
19777;BME280;10047;42.490;26.012;2023-02-11T03:31:50;102050.31;;;-5.43;100.00
19777;BME280;10047;42.490;26.012;2023-02-11T03:34:48;102054.22;;;-5.58;100.00
19777;BME280;10047;42.490;26.012;2023-02-11T03:37:27;102065.38;;;-5.28;100.00
19777;BME280;10047;42.490;26.012;2023-02-11T03:40:09;102010.91;;;-5.99;100.00
19777;BME280;10047;42.490;26.012;2023-02-11T03:42:41;101993.31;;;-6.48;100.00
19777;BME280;10047;42.490;26.012;2023-02-11T03:45:10;102003.84;;;-6.39;100.00
19777;BME280;10047;42.490;26.012;2023-02-11T03:47:39;102100.84;;;-5.98;100.00
19777;BME280;10047;42.490;26.012;2023-02-11T03:50:09;102133.69;;;-5.32;100.00
19777;BME280;10047;42.490;26.012;2023-02-11T03:52:36;102124.88;;;-5.51;100.00
19777;BME280;10047;42.490;26.012;2023-02-11T03:55:08;102042.19;;;-5.99;100.00
19777;BME280;10047;42.490;26.012;2023-02-11T03:57:34;102114.72;;;-5.43;100.00
19777;BME280;10047;42.490;26.012;2023-02-11T03:59:59;102112.78;;;-5.81;100.00
19777;BME280;10047;42.490;26.012;2023-02-11T04:02:31;102120.56;;;-5.77;100.00
19777;BME280;10047;42.490;26.012;2023-02-11T04:04:57;102036.19;;;-6.03;100.00
19777;BME280;10047;42.490;26.012;2023-02-11T04:07:23;101977.31;;;-6.30;100.00
19777;BME280;10047;42.490;26.012;2023-02-11T04:09:49;102081.47;;;-5.81;100.00
19777;BME280;10047;42.490;26.012;2023-02-11T04:12:14;102127.56;;;-5.48;100.00
19777;BME280;10047;42.490;26.012;2023-02-11T04:14:40;102136.72;;;-5.36;100.00
19777;BME280;10047;42.490;26.012;2023-02-11T04:17:05;102158.28;;;-5.23;100.00
19777;BME280;10047;42.490;26.012;2023-02-11T04:19:31;101988.00;;;-6.64;100.00
19777;BME280;10047;42.490;26.012;2023-02-11T04:21:57;102138.22;;;-5.84;100.00
19777;BME280;10047;42.490;26.012;2023-02-11T04:24:22;102072.03;;;-5.86;100.00
19777;BME280;10047;42.490;26.012;2023-02-11T04:26:47;102157.59;;;-5.32;100.00
19777;BME280;10047;42.490;26.012;2023-02-11T04:29:13;102147.47;;;-5.70;100.00
19777;BME280;10047;42.490;26.012;2023-02-11T04:31:38;102065.84;;;-5.80;100.00
19777;BME280;10047;42.490;26.012;2023-02-11T04:34:04;102167.63;;;-5.07;100.00
19777;BME280;10047;42.490;26.012;2023-02-11T04:36:29;102091.06;;;-5.51;100.00
19777;BME280;10047;42.490;26.012;2023-02-11T04:38:55;102070.59;;;-5.83;100.00
19777;BME280;10047;42.490;26.012;2023-02-11T04:41:20;102075.75;;;-5.80;100.00
19777;BME280;10047;42.490;26.012;2023-02-11T04:43:46;102090.38;;;-5.37;100.00
19777;BME280;10047;42.490;26.012;2023-02-11T04:46:11;102089.44;;;-4.91;100.00
19777;BME280;10047;42.490;26.012;2023-02-11T04:48:37;102085.25;;;-4.92;100.00
19777;BME280;10047;42.490;26.012;2023-02-11T04:51:02;102101.59;;;-5.88;100.00
19777;BME280;10047;42.490;26.012;2023-02-11T04:53:27;102078.50;;;-5.88;100.00
19777;BME280;10047;42.490;26.012;2023-02-11T04:55:53;102153.28;;;-5.35;100.00
19777;BME280;10047;42.490;26.012;2023-02-11T04:58:19;101980.63;;;-6.53;100.00
19777;BME280;10047;42.490;26.012;2023-02-11T05:00:44;102150.41;;;-5.17;100.00
19777;BME280;10047;42.490;26.012;2023-02-11T05:03:10;102059.28;;;-5.68;100.00
19777;BME280;10047;42.490;26.012;2023-02-11T05:05:39;102138.53;;;-5.45;100.00
19777;BME280;10047;42.490;26.012;2023-02-11T05:08:07;102029.47;;;-6.27;100.00
19777;BME280;10047;42.490;26.012;2023-02-11T05:10:33;102112.34;;;-6.10;100.00
19777;BME280;10047;42.490;26.012;2023-02-11T05:12:59;102039.88;;;-6.43;100.00
19777;BME280;10047;42.490;26.012;2023-02-11T05:15:26;102138.97;;;-5.85;100.00
19777;BME280;10047;42.490;26.012;2023-02-11T05:17:52;102130.22;;;-5.68;100.00
19777;BME280;10047;42.490;26.012;2023-02-11T05:20:17;102122.28;;;-5.53;100.00
19777;BME280;10047;42.490;26.012;2023-02-11T05:22:43;102116.69;;;-5.96;100.00
19777;BME280;10047;42.490;26.012;2023-02-11T05:25:08;102114.56;;;-6.13;100.00
19777;BME280;10047;42.490;26.012;2023-02-11T05:27:34;102109.88;;;-6.10;100.00
19777;BME280;10047;42.490;26.012;2023-02-11T05:30:00;102105.31;;;-6.49;100.00
19777;BME280;10047;42.490;26.012;2023-02-11T05:32:25;102067.59;;;-6.02;100.00
19777;BME280;10047;42.490;26.012;2023-02-11T05:34:50;102027.03;;;-6.60;100.00
19777;BME280;10047;42.490;26.012;2023-02-11T05:37:16;102136.47;;;-5.62;100.00
19777;BME280;10047;42.490;26.012;2023-02-11T05:39:41;102025.41;;;-6.15;100.00
19777;BME280;10047;42.490;26.012;2023-02-11T05:42:07;102131.53;;;-5.62;100.00
19777;BME280;10047;42.490;26.012;2023-02-11T05:44:32;102163.88;;;-5.37;100.00
19777;BME280;10047;42.490;26.012;2023-02-11T05:46:58;102159.44;;;-5.30;100.00
19777;BME280;10047;42.490;26.012;2023-02-11T05:49:25;102154.38;;;-5.31;100.00
19777;BME280;10047;42.490;26.012;2023-02-11T05:51:51;102155.88;;;-5.56;100.00
19777;BME280;10047;42.490;26.012;2023-02-11T05:54:16;102164.63;;;-4.67;100.00
19777;BME280;10047;42.490;26.012;2023-02-11T05:56:42;102086.66;;;-2.21;100.00
19777;BME280;10047;42.490;26.012;2023-02-11T05:59:07;102127.47;;;-0.84;100.00
19777;BME280;10047;42.490;26.012;2023-02-11T06:01:33;102149.47;;;-0.13;100.00
19777;BME280;10047;42.490;26.012;2023-02-11T06:03:58;102079.66;;;-0.76;100.00
19777;BME280;10047;42.490;26.012;2023-02-11T06:06:24;102038.91;;;0.44;100.00
19777;BME280;10047;42.490;26.012;2023-02-11T06:08:49;101942.09;;;0.60;100.00
19777;BME280;10047;42.490;26.012;2023-02-11T06:11:15;101767.56;;;-0.41;100.00
19777;BME280;10047;42.490;26.012;2023-02-11T06:13:40;101708.94;;;0.28;100.00
19777;BME280;10047;42.490;26.012;2023-02-11T06:16:06;101619.19;;;0.56;100.00
19777;BME280;10047;42.490;26.012;2023-02-11T06:18:31;101713.88;;;3.02;100.00
19777;BME280;10047;42.490;26.012;2023-02-11T06:20:58;101655.09;;;-1.35;100.00
19777;BME280;10047;42.490;26.012;2023-02-11T06:23:24;101714.91;;;1.37;100.00
19777;BME280;10047;42.490;26.012;2023-02-11T06:25:50;101640.97;;;0.38;100.00
19777;BME280;10047;42.490;26.012;2023-02-11T06:28:15;101705.63;;;0.91;100.00
19777;BME280;10047;42.490;26.012;2023-02-11T06:30:41;101656.97;;;1.50;100.00
19777;BME280;10047;42.490;26.012;2023-02-11T06:33:06;101649.94;;;2.64;100.00
19777;BME280;10047;42.490;26.012;2023-02-11T06:35:32;101743.16;;;4.84;100.00
19777;BME280;10047;42.490;26.012;2023-02-11T06:37:59;101790.19;;;4.20;100.00
19777;BME280;10047;42.490;26.012;2023-02-11T06:40:25;101798.69;;;5.99;100.00
19777;BME280;10047;42.490;26.012;2023-02-11T06:42:50;101759.09;;;3.59;100.00
19777;BME280;10047;42.490;26.012;2023-02-11T06:45:15;101857.03;;;5.04;100.00
19777;BME280;10047;42.490;26.012;2023-02-11T06:47:41;101788.38;;;4.78;100.00
19777;BME280;10047;42.490;26.012;2023-02-11T06:50:09;101789.25;;;4.16;100.00
19777;BME280;10047;42.490;26.012;2023-02-11T06:52:35;101848.97;;;3.11;100.00
19777;BME280;10047;42.490;26.012;2023-02-11T06:55:00;101846.81;;;0.96;100.00
19777;BME280;10047;42.490;26.012;2023-02-11T06:57:26;101899.00;;;-0.25;100.00
19777;BME280;10047;42.490;26.012;2023-02-11T06:59:52;101776.84;;;-1.26;100.00
19777;BME280;10047;42.490;26.012;2023-02-11T07:02:17;101808.22;;;-1.47;100.00
19777;BME280;10047;42.490;26.012;2023-02-11T07:04:42;101708.19;;;-1.87;100.00
19777;BME280;10047;42.490;26.012;2023-02-11T07:07:10;101774.38;;;-0.56;100.00
19777;BME280;10047;42.490;26.012;2023-02-11T07:09:35;101677.38;;;-1.20;100.00
19777;BME280;10047;42.490;26.012;2023-02-11T07:12:01;101757.56;;;-0.60;100.00
19777;BME280;10047;42.490;26.012;2023-02-11T07:14:26;101718.06;;;0.27;100.00
19777;BME280;10047;42.490;26.012;2023-02-11T07:16:54;101672.97;;;-0.71;100.00
19777;BME280;10047;42.490;26.012;2023-02-11T07:19:20;101717.63;;;0.17;100.00
19777;BME280;10047;42.490;26.012;2023-02-11T07:21:46;101645.94;;;-1.17;100.00
19777;BME280;10047;42.490;26.012;2023-02-11T07:24:13;101675.94;;;-0.61;100.00
19777;BME280;10047;42.490;26.012;2023-02-11T07:26:39;101645.25;;;-0.39;100.00
19777;BME280;10047;42.490;26.012;2023-02-11T07:29:04;101707.25;;;-0.50;100.00
19777;BME280;10047;42.490;26.012;2023-02-11T07:31:30;101687.34;;;0.71;100.00
19777;BME280;10047;42.490;26.012;2023-02-11T07:33:58;101700.16;;;0.78;100.00
19777;BME280;10047;42.490;26.012;2023-02-11T07:36:24;101617.84;;;-0.19;100.00
19777;BME280;10047;42.490;26.012;2023-02-11T07:38:50;101701.78;;;0.37;100.00
19777;BME280;10047;42.490;26.012;2023-02-11T07:41:18;101692.19;;;0.88;100.00
19777;BME280;10047;42.490;26.012;2023-02-11T07:43:44;101669.25;;;0.78;100.00
19777;BME280;10047;42.490;26.012;2023-02-11T07:46:16;101684.41;;;0.81;100.00
19777;BME280;10047;42.490;26.012;2023-02-11T07:48:42;101672.56;;;1.21;100.00
19777;BME280;10047;42.490;26.012;2023-02-11T07:51:11;101695.47;;;1.08;100.00
19777;BME280;10047;42.490;26.012;2023-02-11T07:53:38;101682.50;;;0.75;100.00
19777;BME280;10047;42.490;26.012;2023-02-11T07:56:05;101681.47;;;-0.49;100.00
19777;BME280;10047;42.490;26.012;2023-02-11T07:58:31;101652.84;;;0.23;100.00
19777;BME280;10047;42.490;26.012;2023-02-11T08:01:08;101612.44;;;0.53;100.00
19777;BME280;10047;42.490;26.012;2023-02-11T08:03:35;101625.59;;;0.08;100.00
19777;BME280;10047;42.490;26.012;2023-02-11T08:06:11;101686.84;;;-0.02;100.00
19777;BME280;10047;42.490;26.012;2023-02-11T08:08:37;101676.22;;;-0.17;100.00
19777;BME280;10047;42.490;26.012;2023-02-11T08:11:07;101689.22;;;-0.43;100.00
19777;BME280;10047;42.490;26.012;2023-02-11T08:13:33;101631.06;;;-0.40;100.00
19777;BME280;10047;42.490;26.012;2023-02-11T08:15:58;101647.72;;;-0.01;100.00
19777;BME280;10047;42.490;26.012;2023-02-11T08:18:23;101680.56;;;0.08;100.00
19777;BME280;10047;42.490;26.012;2023-02-11T08:20:49;101640.38;;;0.43;100.00
19777;BME280;10047;42.490;26.012;2023-02-11T08:23:14;101680.88;;;0.55;100.00
19777;BME280;10047;42.490;26.012;2023-02-11T08:25:39;101615.94;;;0.38;100.00
19777;BME280;10047;42.490;26.012;2023-02-11T08:28:05;101596.72;;;-0.06;100.00
19777;BME280;10047;42.490;26.012;2023-02-11T08:30:30;101661.19;;;0.85;100.00
19777;BME280;10047;42.490;26.012;2023-02-11T08:32:56;101675.38;;;1.29;100.00
19777;BME280;10047;42.490;26.012;2023-02-11T08:35:21;101673.81;;;0.45;100.00
19777;BME280;10047;42.490;26.012;2023-02-11T08:37:46;101642.41;;;0.74;100.00
19777;BME280;10047;42.490;26.012;2023-02-11T08:40:12;101664.00;;;1.15;100.00
19777;BME280;10047;42.490;26.012;2023-02-11T08:42:37;101571.63;;;-0.08;100.00
19777;BME280;10047;42.490;26.012;2023-02-11T08:45:03;101654.34;;;1.71;100.00
19777;BME280;10047;42.490;26.012;2023-02-11T08:47:29;101644.00;;;1.62;100.00
19777;BME280;10047;42.490;26.012;2023-02-11T08:49:55;101555.16;;;1.52;100.00
19777;BME280;10047;42.490;26.012;2023-02-11T08:52:21;101620.34;;;1.08;100.00
19777;BME280;10047;42.490;26.012;2023-02-11T08:54:46;101625.22;;;1.74;100.00
19777;BME280;10047;42.490;26.012;2023-02-11T08:57:11;101578.09;;;1.17;100.00
19777;BME280;10047;42.490;26.012;2023-02-11T08:59:37;101612.78;;;2.28;100.00
19777;BME280;10047;42.490;26.012;2023-02-11T09:02:04;101547.81;;;1.84;100.00
19777;BME280;10047;42.490;26.012;2023-02-11T09:04:29;101578.06;;;1.16;100.00
19777;BME280;10047;42.490;26.012;2023-02-11T09:06:56;101616.31;;;1.59;100.00
19777;BME280;10047;42.490;26.012;2023-02-11T09:09:21;101612.06;;;2.32;100.00
19777;BME280;10047;42.490;26.012;2023-02-11T09:11:47;101517.63;;;2.34;100.00
19777;BME280;10047;42.490;26.012;2023-02-11T09:14:19;101603.63;;;2.30;100.00
19777;BME280;10047;42.490;26.012;2023-02-11T09:16:45;101553.31;;;2.52;100.00
19777;BME280;10047;42.490;26.012;2023-02-11T09:19:11;101537.16;;;2.16;100.00
19777;BME280;10047;42.490;26.012;2023-02-11T09:21:37;101605.00;;;1.94;100.00
19777;BME280;10047;42.490;26.012;2023-02-11T09:24:02;101593.63;;;2.85;100.00
19777;BME280;10047;42.490;26.012;2023-02-11T09:26:30;101601.00;;;3.08;100.00
19777;BME280;10047;42.490;26.012;2023-02-11T09:28:56;101495.41;;;3.05;100.00
19777;BME280;10047;42.490;26.012;2023-02-11T09:31:24;101583.44;;;3.08;100.00
19777;BME280;10047;42.490;26.012;2023-02-11T09:33:52;101586.88;;;3.41;100.00
19777;BME280;10047;42.490;26.012;2023-02-11T09:36:23;101610.13;;;3.05;100.00
19777;BME280;10047;42.490;26.012;2023-02-11T09:38:49;101594.53;;;4.11;100.00
19777;BME280;10047;42.490;26.012;2023-02-11T09:44:00;101633.66;;;3.68;100.00
19777;BME280;10047;42.490;26.012;2023-02-11T09:46:30;101565.13;;;4.09;100.00
19777;BME280;10047;42.490;26.012;2023-02-11T09:48:57;101632.91;;;4.03;100.00
19777;BME280;10047;42.490;26.012;2023-02-11T09:53:53;101548.13;;;4.36;100.00
19777;BME280;10047;42.490;26.012;2023-02-11T09:56:20;101640.94;;;4.22;100.00
19777;BME280;10047;42.490;26.012;2023-02-11T09:58:46;101549.88;;;4.03;100.00
19777;BME280;10047;42.490;26.012;2023-02-11T10:07:18;101622.84;;;4.74;100.00
19777;BME280;10047;42.490;26.012;2023-02-11T10:09:51;101630.38;;;5.11;100.00
19777;BME280;10047;42.490;26.012;2023-02-11T10:15:21;101617.56;;;5.01;100.00
19777;BME280;10047;42.490;26.012;2023-02-11T10:22:53;101623.78;;;5.58;100.00
19777;BME280;10047;42.490;26.012;2023-02-11T10:25:23;101549.75;;;4.34;100.00
19777;BME280;10047;42.490;26.012;2023-02-11T10:27:50;101637.00;;;5.06;100.00
19777;BME280;10047;42.490;26.012;2023-02-11T10:30:25;101618.75;;;5.16;100.00
19777;BME280;10047;42.490;26.012;2023-02-11T10:32:58;101626.72;;;5.82;100.00
19777;BME280;10047;42.490;26.012;2023-02-11T10:35:25;101481.00;;;5.20;100.00
19777;BME280;10047;42.490;26.012;2023-02-11T10:37:52;101639.38;;;4.99;100.00
19777;BME280;10047;42.490;26.012;2023-02-11T10:40:26;101631.47;;;5.66;100.00
19777;BME280;10047;42.490;26.012;2023-02-11T10:42:54;101626.31;;;5.18;100.00
19777;BME280;10047;42.490;26.012;2023-02-11T10:45:26;101615.94;;;5.88;100.00
19777;BME280;10047;42.490;26.012;2023-02-11T10:47:52;101514.53;;;5.62;100.00
19777;BME280;10047;42.490;26.012;2023-02-11T10:50:30;101602.59;;;5.08;99.56
19777;BME280;10047;42.490;26.012;2023-02-11T10:55:48;101472.63;;;5.70;95.38
19777;BME280;10047;42.490;26.012;2023-02-11T10:58:23;101607.13;;;6.69;93.06
19777;BME280;10047;42.490;26.012;2023-02-11T11:00:53;101612.34;;;6.25;90.74
19777;BME280;10047;42.490;26.012;2023-02-11T11:03:22;101472.16;;;5.43;92.51
19777;BME280;10047;42.490;26.012;2023-02-11T11:08:15;101586.00;;;6.10;89.98
19777;BME280;10047;42.490;26.012;2023-02-11T11:10:44;101521.47;;;5.75;89.24
19777;BME280;10047;42.490;26.012;2023-02-11T11:14:12;101621.81;;;5.88;86.94
19777;BME280;10047;42.490;26.012;2023-02-11T11:16:18;101563.31;;;6.69;85.96
19777;BME280;10047;42.490;26.012;2023-02-11T11:18:46;101594.09;;;7.03;84.54
19777;BME280;10047;42.490;26.012;2023-02-11T11:21:17;101606.13;;;6.58;83.22
19777;BME280;10047;42.490;26.012;2023-02-11T11:23:53;101519.06;;;5.83;83.24
19777;BME280;10047;42.490;26.012;2023-02-11T11:26:19;101579.56;;;6.87;81.64
19777;BME280;10047;42.490;26.012;2023-02-11T11:31:13;101602.50;;;6.41;80.85
19777;BME280;10047;42.490;26.012;2023-02-11T11:33:41;101507.13;;;6.25;81.11
19777;BME280;10047;42.490;26.012;2023-02-11T11:36:11;101586.25;;;6.82;78.11
19777;BME280;10047;42.490;26.012;2023-02-11T11:38:47;101452.53;;;6.35;77.28
19777;BME280;10047;42.490;26.012;2023-02-11T11:41:23;101586.72;;;7.23;75.68
19777;BME280;10047;42.490;26.012;2023-02-11T11:46:41;101584.00;;;7.83;74.46
19777;BME280;10047;42.490;26.012;2023-02-11T11:49:12;101584.56;;;7.55;73.15
19777;BME280;10047;42.490;26.012;2023-02-11T11:51:46;101534.81;;;7.57;73.13
19777;BME280;10047;42.490;26.012;2023-02-11T11:54:17;101515.47;;;6.84;71.59
19777;BME280;10047;42.490;26.012;2023-02-11T11:56:50;101518.97;;;7.77;70.21
19777;BME280;10047;42.490;26.012;2023-02-11T11:59:18;101514.91;;;7.06;68.12
19777;BME280;10047;42.490;26.012;2023-02-11T12:07:55;101444.50;;;7.51;67.35
19777;BME280;10047;42.490;26.012;2023-02-11T12:18:24;101415.53;;;8.35;63.96
19777;BME280;10047;42.490;26.012;2023-02-11T12:27:01;101343.00;;;8.90;57.75
19777;BME280;10047;42.490;26.012;2023-02-11T12:59:18;101593.16;;;8.77;51.11
19777;BME280;10047;42.490;26.012;2023-02-11T13:01:46;101541.63;;;8.83;49.96
19777;BME280;10047;42.490;26.012;2023-02-11T13:04:24;101622.69;;;8.67;49.63
19777;BME280;10047;42.490;26.012;2023-02-11T13:07:02;101553.44;;;8.84;51.08
19777;BME280;10047;42.490;26.012;2023-02-11T13:09:34;101611.16;;;9.30;49.74
19777;BME280;10047;42.490;26.012;2023-02-11T13:12:05;101607.63;;;8.95;48.19
19777;BME280;10047;42.490;26.012;2023-02-11T13:14:51;101619.38;;;8.82;49.04
19777;BME280;10047;42.490;26.012;2023-02-11T13:17:33;101620.59;;;9.76;47.67
19777;BME280;10047;42.490;26.012;2023-02-11T13:20:14;101626.25;;;8.98;47.90
19777;BME280;10047;42.490;26.012;2023-02-11T13:22:53;101620.22;;;8.80;46.11
19777;BME280;10047;42.490;26.012;2023-02-11T13:25:45;101632.19;;;9.08;48.03
19777;BME280;10047;42.490;26.012;2023-02-11T13:28:47;101628.81;;;9.06;47.45
19777;BME280;10047;42.490;26.012;2023-02-11T13:31:13;101546.63;;;8.61;46.98
19777;BME280;10047;42.490;26.012;2023-02-11T13:33:41;101626.25;;;8.98;46.80
19777;BME280;10047;42.490;26.012;2023-02-11T13:38:33;101565.44;;;9.16;46.20
19777;BME280;10047;42.490;26.012;2023-02-11T13:43:30;101608.56;;;9.18;45.56
19777;BME280;10047;42.490;26.012;2023-02-11T13:46:05;101603.44;;;9.06;46.02
19777;BME280;10047;42.490;26.012;2023-02-11T13:48:36;101600.94;;;9.13;44.26
19777;BME280;10047;42.490;26.012;2023-02-11T13:51:05;101534.88;;;8.85;45.42
19777;BME280;10047;42.490;26.012;2023-02-11T13:53:50;101610.97;;;8.86;46.16
19777;BME280;10047;42.490;26.012;2023-02-11T13:58:50;101599.16;;;8.91;46.03
19777;BME280;10047;42.490;26.012;2023-02-11T14:04:32;101521.13;;;8.42;45.35
19777;BME280;10047;42.490;26.012;2023-02-11T14:07:25;101578.16;;;9.22;44.86
19777;BME280;10047;42.490;26.012;2023-02-11T14:16:20;101568.75;;;8.97;45.35
19777;BME280;10047;42.490;26.012;2023-02-11T14:21:16;101569.41;;;8.60;45.39
19777;BME280;10047;42.490;26.012;2023-02-11T14:23:43;101506.75;;;8.36;44.37
19777;BME280;10047;42.490;26.012;2023-02-11T14:26:24;101570.25;;;8.57;44.35
19777;BME280;10047;42.490;26.012;2023-02-11T14:31:41;101490.88;;;8.72;44.00
19777;BME280;10047;42.490;26.012;2023-02-11T14:37:40;101542.00;;;11.83;38.56
19777;BME280;10047;42.490;26.012;2023-02-11T14:40:25;101549.44;;;10.55;38.59
19777;BME280;10047;42.490;26.012;2023-02-11T14:42:53;101476.41;;;10.82;37.78
19777;BME280;10047;42.490;26.012;2023-02-11T14:45:23;101477.25;;;10.84;38.33
19777;BME280;10047;42.490;26.012;2023-02-11T14:50:31;101561.00;;;11.31;36.88
19777;BME280;10047;42.490;26.012;2023-02-11T14:52:59;101563.78;;;10.72;38.30
19777;BME280;10047;42.490;26.012;2023-02-11T14:55:30;101555.22;;;10.99;37.85
19777;BME280;10047;42.490;26.012;2023-02-11T15:01:05;101552.91;;;10.23;38.99
19777;BME280;10047;42.490;26.012;2023-02-11T15:03:41;101497.78;;;10.33;38.53
19777;BME280;10047;42.490;26.012;2023-02-11T15:08:43;101546.94;;;9.78;41.08
19777;BME280;10047;42.490;26.012;2023-02-11T15:11:13;101546.66;;;8.72;41.55
19777;BME280;10047;42.490;26.012;2023-02-11T15:13:40;101471.88;;;7.99;43.23
19777;BME280;10047;42.490;26.012;2023-02-11T15:16:11;101558.06;;;8.10;46.00
19777;BME280;10047;42.490;26.012;2023-02-11T15:18:40;101558.84;;;7.16;49.38